createdAt,value
2017-12-16T00:03:47.595Z,0
2017-12-16T00:13:47.580Z,0
2017-12-16T00:23:47.691Z,0
2017-12-16T00:33:47.602Z,0
2017-12-16T00:43:47.810Z,0
2017-12-16T00:53:47.607Z,0
2017-12-16T01:03:47.729Z,0
2017-12-16T01:13:47.682Z,0
2017-12-16T01:23:47.761Z,0
2017-12-16T01:33:47.666Z,0
2017-12-16T01:43:56.230Z,0
2017-12-16T01:53:47.705Z,0
2017-12-16T02:03:47.666Z,0
2017-12-16T02:14:30.731Z,0
2017-12-16T02:23:47.677Z,0
2017-12-16T02:33:47.769Z,0
2017-12-16T02:43:47.804Z,0
2017-12-16T02:53:47.793Z,0
2017-12-16T03:03:47.781Z,0
2017-12-16T03:13:48.306Z,0
2017-12-16T03:23:47.766Z,0
2017-12-16T03:33:47.718Z,0
2017-12-16T03:43:47.772Z,0
2017-12-16T03:53:47.730Z,0
2017-12-16T04:03:47.799Z,0
2017-12-16T04:13:47.756Z,0
2017-12-16T04:23:47.831Z,0
2017-12-16T04:33:47.812Z,0
2017-12-16T04:43:47.893Z,0
2017-12-16T04:53:47.854Z,0
2017-12-16T05:03:47.778Z,0
2017-12-16T05:13:47.830Z,0
2017-12-16T05:23:47.791Z,0
2017-12-16T05:33:47.851Z,0
2017-12-16T05:43:47.809Z,0
2017-12-16T05:53:47.921Z,0
2017-12-16T06:03:47.885Z,0
2017-12-16T06:13:47.934Z,0
2017-12-16T06:23:47.864Z,0
2017-12-16T06:33:47.898Z,0
2017-12-16T06:43:47.882Z,0
2017-12-16T06:53:47.978Z,0
2017-12-16T07:03:47.953Z,0
2017-12-16T07:13:47.892Z,0
2017-12-16T07:23:47.950Z,0
2017-12-16T07:33:47.930Z,5
2017-12-16T07:43:47.967Z,10
2017-12-16T07:53:47.927Z,15
2017-12-16T08:03:48.007Z,20
2017-12-16T08:13:47.948Z,30
2017-12-16T08:23:47.914Z,30
2017-12-16T08:33:47.999Z,45
2017-12-16T08:43:47.967Z,40
2017-12-16T08:53:48.011Z,50
2017-12-16T09:03:48.017Z,60
2017-12-16T09:13:48.048Z,55
2017-12-16T09:23:47.993Z,55
2017-12-16T09:33:47.995Z,65
2017-12-16T09:43:48.133Z,95
2017-12-16T09:53:48.026Z,75
2017-12-16T10:03:48.122Z,70
2017-12-16T10:13:48.047Z,60
2017-12-16T10:23:48.146Z,85
2017-12-16T10:33:48.117Z,75
2017-12-16T10:43:48.141Z,75
2017-12-16T10:53:48.127Z,75
2017-12-16T11:03:48.145Z,95
2017-12-16T11:13:48.177Z,85
2017-12-16T11:23:48.066Z,80
2017-12-16T11:33:48.111Z,75
2017-12-16T11:43:48.119Z,80
2017-12-16T11:53:48.137Z,90
2017-12-16T12:03:48.130Z,70
2017-12-16T12:13:48.171Z,80
2017-12-16T12:23:48.113Z,80
2017-12-16T12:33:48.280Z,70
2017-12-16T12:43:48.226Z,75
2017-12-16T12:53:48.243Z,70
2017-12-16T13:03:49.201Z,60
2017-12-16T13:13:48.210Z,55
2017-12-16T13:23:48.220Z,60
2017-12-16T13:40:16.620Z,45
2017-12-16T13:43:48.135Z,45
2017-12-16T13:53:48.180Z,45
2017-12-16T14:03:48.202Z,40
2017-12-16T14:13:48.270Z,35
2017-12-16T14:23:48.267Z,30
2017-12-16T14:33:48.260Z,20
2017-12-16T14:43:48.359Z,15
2017-12-16T14:53:48.289Z,10
2017-12-16T15:03:48.280Z,5
2017-12-16T15:13:48.266Z,0
2017-12-16T15:23:48.594Z,0
2017-12-16T15:33:48.301Z,0
2017-12-16T15:43:48.239Z,0
2017-12-16T15:53:48.644Z,0
2017-12-16T16:03:48.366Z,0
2017-12-16T16:13:48.360Z,0
2017-12-16T16:23:48.388Z,0
2017-12-16T16:33:48.628Z,0
2017-12-16T16:43:48.841Z,0
2017-12-16T16:53:48.391Z,0
2017-12-16T17:03:48.665Z,0
2017-12-16T17:13:48.376Z,0
2017-12-16T17:23:48.417Z,0
2017-12-16T17:33:48.349Z,0
2017-12-16T17:43:48.323Z,0
2017-12-16T17:53:48.822Z,0
2017-12-16T18:03:48.599Z,0
2017-12-16T18:13:48.832Z,0
2017-12-16T18:23:48.371Z,0
2017-12-16T18:33:48.463Z,0
2017-12-16T18:43:48.377Z,0
2017-12-16T18:53:48.560Z,0
2017-12-16T19:03:48.442Z,0
2017-12-16T19:13:48.720Z,0
2017-12-16T19:23:48.683Z,0
2017-12-16T19:33:48.408Z,0
2017-12-16T19:43:48.561Z,0
2017-12-16T19:53:48.489Z,0
2017-12-16T20:03:48.452Z,0
2017-12-16T20:13:48.530Z,0
2017-12-16T20:23:48.963Z,0
2017-12-16T20:33:48.795Z,0
2017-12-16T20:43:49.213Z,0
2017-12-16T20:53:48.788Z,0
2017-12-16T21:03:48.808Z,0
2017-12-16T21:13:48.597Z,0
2017-12-16T21:23:48.671Z,0
2017-12-16T21:33:48.764Z,0
2017-12-16T21:43:49.095Z,0
2017-12-16T21:53:48.683Z,0
2017-12-16T22:03:48.587Z,0
2017-12-16T22:13:48.727Z,0
2017-12-16T22:23:48.687Z,0
2017-12-16T22:33:49.053Z,0
2017-12-16T22:43:48.701Z,0
2017-12-16T22:53:48.677Z,0
2017-12-16T23:03:48.877Z,0
2017-12-16T23:13:48.686Z,0
2017-12-16T23:23:48.682Z,0
2017-12-16T23:33:48.603Z,0
2017-12-16T23:43:48.719Z,0
2017-12-16T23:53:48.650Z,0
